createdAt,value
2019-03-22T00:01:22.198Z,3.77
2019-03-22T00:03:55.495Z,3.74
2019-03-22T00:06:26.118Z,3.67
2019-03-22T00:08:56.744Z,3.70
2019-03-22T00:11:27.396Z,3.66
2019-03-22T00:13:57.906Z,3.65
2019-03-22T00:16:28.547Z,3.74
2019-03-22T00:19:00.299Z,3.72
2019-03-22T00:21:30.928Z,3.71
2019-03-22T00:24:02.790Z,3.60
2019-03-22T00:26:33.106Z,3.61
2019-03-22T00:29:04.354Z,3.57
2019-03-22T00:31:35.084Z,3.53
2019-03-22T00:34:06.430Z,3.58
2019-03-22T00:36:38.691Z,3.54
2019-03-22T00:39:11.486Z,3.50
2019-03-22T00:41:43.380Z,3.49
2019-03-22T00:44:14.173Z,3.46
2019-03-22T00:46:45.832Z,3.35
2019-03-22T00:49:17.190Z,3.32
2019-03-22T00:51:48.017Z,3.38
2019-03-22T00:54:18.746Z,3.36
2019-03-22T00:56:50.189Z,3.38
2019-03-22T00:59:20.619Z,3.43
2019-03-22T01:01:51.659Z,3.49
2019-03-22T01:04:22.187Z,3.51
2019-03-22T01:06:52.919Z,3.31
2019-03-22T01:09:24.006Z,3.63
2019-03-22T01:11:54.801Z,3.67
2019-03-22T01:14:25.944Z,3.71
2019-03-22T01:16:56.476Z,3.80
2019-03-22T01:19:27.098Z,3.88
2019-03-22T01:21:57.828Z,3.96
2019-03-22T01:24:30.042Z,4.01
2019-03-22T01:27:00.521Z,4.00
2019-03-22T01:29:30.897Z,3.96
2019-03-22T01:32:02.395Z,3.89
2019-03-22T01:34:33.536Z,3.90
2019-03-22T01:37:04.275Z,3.88
2019-03-22T01:39:35.716Z,3.83
2019-03-22T01:42:06.143Z,3.85
2019-03-22T01:44:36.775Z,3.87
2019-03-22T01:47:07.509Z,3.84
2019-03-22T01:49:38.857Z,3.93
2019-03-22T01:52:09.176Z,3.98
2019-03-22T01:54:39.807Z,3.94
2019-03-22T01:57:10.847Z,3.96
2019-03-22T01:59:42.189Z,3.96
2019-03-22T02:02:13.129Z,3.94
2019-03-22T02:04:43.486Z,3.89
2019-03-22T02:07:15.826Z,3.94
2019-03-22T02:09:47.066Z,3.90
2019-03-22T02:12:18.212Z,3.90
2019-03-22T02:14:48.938Z,3.95
2019-03-22T02:17:19.880Z,4.03
2019-03-22T02:19:51.024Z,4.08
2019-03-22T02:22:23.983Z,4.12
2019-03-22T02:24:55.352Z,4.21
2019-03-22T02:27:26.091Z,4.12
2019-03-22T02:29:56.723Z,4.13
2019-03-22T02:32:27.251Z,4.09
2019-03-22T02:34:58.396Z,4.08
2019-03-22T02:37:29.021Z,4.06
2019-03-22T02:39:59.753Z,4.03
2019-03-22T02:42:30.384Z,4.00
2019-03-22T02:45:01.118Z,4.03
2019-03-22T02:47:31.634Z,4.06
2019-03-22T02:50:17.834Z,4.11
2019-03-22T02:52:39.251Z,4.06
2019-03-22T02:55:10.497Z,4.07
2019-03-22T02:57:41.743Z,4.09
2019-03-22T03:00:17.108Z,4.12
2019-03-22T03:02:47.477Z,4.12
2019-03-22T03:05:18.354Z,4.14
2019-03-22T03:07:49.219Z,4.15
2019-03-22T03:10:22.772Z,4.14
2019-03-22T03:12:53.402Z,4.17
2019-03-22T03:15:25.878Z,4.15
2019-03-22T03:17:57.331Z,4.13
2019-03-22T03:20:28.470Z,4.19
2019-03-22T03:22:59.212Z,4.19
2019-03-22T03:25:31.161Z,4.20
2019-03-22T03:28:01.486Z,4.24
2019-03-22T03:30:32.221Z,4.25
2019-03-22T03:33:04.900Z,4.28
2019-03-22T03:35:35.529Z,4.24
2019-03-22T03:38:06.156Z,4.28
2019-03-22T03:40:37.090Z,4.30
2019-03-22T03:43:07.831Z,4.31
2019-03-22T03:45:39.380Z,4.33
2019-03-22T03:48:10.730Z,4.30
2019-03-22T03:50:41.551Z,4.29
2019-03-22T03:53:12.852Z,4.30
2019-03-22T03:55:46.894Z,4.35
2019-03-22T03:58:17.657Z,4.35
2019-03-22T04:00:48.381Z,4.37
2019-03-22T04:03:21.895Z,4.39
2019-03-22T04:05:52.631Z,4.45
2019-03-22T04:08:25.587Z,4.42
2019-03-22T04:10:56.434Z,4.43
2019-03-22T04:13:26.968Z,4.42
2019-03-22T04:15:58.854Z,4.44
2019-03-22T04:18:31.117Z,4.51
2019-03-22T04:21:02.339Z,4.57
2019-03-22T04:23:32.888Z,4.61
2019-03-22T04:26:03.506Z,4.56
2019-03-22T04:28:35.148Z,4.54
2019-03-22T04:31:05.445Z,4.59
2019-03-22T04:33:35.949Z,4.60
2019-03-22T04:36:06.859Z,4.62
2019-03-22T04:38:39.100Z,4.75
2019-03-22T04:41:09.828Z,4.80
2019-03-22T04:43:40.665Z,4.86
2019-03-22T04:46:11.813Z,4.96
2019-03-22T04:48:42.811Z,5.13
2019-03-22T04:51:13.577Z,5.22
2019-03-22T04:53:45.266Z,5.38
2019-03-22T04:56:17.911Z,5.39
2019-03-22T04:58:49.190Z,5.33
2019-03-22T05:01:20.394Z,5.33
2019-03-22T05:03:51.146Z,5.23
2019-03-22T05:06:21.973Z,5.31
2019-03-22T05:08:53.362Z,5.25
2019-03-22T05:11:23.642Z,5.36
2019-03-22T05:13:54.373Z,5.31
2019-03-22T05:16:25.830Z,5.22
2019-03-22T05:18:56.346Z,5.12
2019-03-22T05:21:27.989Z,4.85
2019-03-22T05:23:59.830Z,4.86
2019-03-22T05:26:30.181Z,4.53
2019-03-22T05:29:01.427Z,4.61
2019-03-22T05:31:35.338Z,4.66
2019-03-22T05:34:07.284Z,4.70
2019-03-22T05:36:38.760Z,4.38
2019-03-22T05:39:09.781Z,4.53
2019-03-22T05:41:40.518Z,4.69
2019-03-22T05:44:12.334Z,4.78
2019-03-22T05:46:42.655Z,4.98
2019-03-22T05:49:13.438Z,5.14
2019-03-22T05:51:44.176Z,5.11
2019-03-22T05:54:15.101Z,5.20
2019-03-22T05:56:46.534Z,5.35
2019-03-22T05:59:17.589Z,5.56
2019-03-22T06:01:48.018Z,5.75
2019-03-22T06:04:19.770Z,5.90
2019-03-22T06:06:50.401Z,5.99
2019-03-22T06:09:21.239Z,5.98
2019-03-22T06:11:53.438Z,5.98
2019-03-22T06:14:24.133Z,6.19
2019-03-22T06:16:55.381Z,6.45
2019-03-22T06:19:26.239Z,6.80
2019-03-22T06:21:57.765Z,6.65
2019-03-22T06:24:28.085Z,6.63
2019-03-22T06:26:58.922Z,6.77
2019-03-22T06:29:30.682Z,6.96
2019-03-22T06:32:01.108Z,6.87
2019-03-22T06:34:31.734Z,6.95
2019-03-22T06:37:03.018Z,7.29
2019-03-22T06:39:33.817Z,7.45
2019-03-22T06:42:04.444Z,7.83
2019-03-22T06:44:38.252Z,7.52
2019-03-22T06:47:11.079Z,7.91
2019-03-22T06:49:41.253Z,8.40
2019-03-22T06:52:11.940Z,8.46
2019-03-22T06:54:43.437Z,8.42
2019-03-22T06:57:14.090Z,8.47
2019-03-22T06:59:45.910Z,8.31
2019-03-22T07:02:16.658Z,8.54
2019-03-22T07:04:48.206Z,8.54
2019-03-22T07:07:19.045Z,8.79
2019-03-22T07:09:50.185Z,9.46
2019-03-22T07:12:20.952Z,9.65
2019-03-22T07:14:52.451Z,9.44
2019-03-22T07:17:23.306Z,9.84
2019-03-22T07:19:57.192Z,9.70
2019-03-22T07:22:27.941Z,9.61
2019-03-22T07:24:59.304Z,9.28
2019-03-22T07:27:32.701Z,9.16
2019-03-22T07:30:17.626Z,8.72
2019-03-22T07:32:37.735Z,8.75
2019-03-22T07:35:08.673Z,8.65
2019-03-22T07:37:39.384Z,8.82
2019-03-22T07:40:11.771Z,8.94
2019-03-22T07:42:42.096Z,9.16
2019-03-22T07:45:13.966Z,9.31
2019-03-22T07:47:44.354Z,9.34
2019-03-22T07:50:15.122Z,9.64
2019-03-22T07:52:46.885Z,9.85
2019-03-22T07:55:21.080Z,9.83
2019-03-22T07:57:51.310Z,9.88
2019-03-22T08:00:30.636Z,9.62
2019-03-22T08:02:54.624Z,9.43
2019-03-22T08:05:25.350Z,9.65
2019-03-22T08:07:56.269Z,9.95
2019-03-22T08:10:27.240Z,10.22
2019-03-22T08:12:57.854Z,10.72
2019-03-22T08:15:33.034Z,11.74
2019-03-22T08:18:04.218Z,12.24
2019-03-22T08:20:35.069Z,12.42
2019-03-22T08:23:08.887Z,12.75
2019-03-22T08:25:43.473Z,11.95
2019-03-22T08:28:13.439Z,11.56
2019-03-22T08:30:44.202Z,11.66
2019-03-22T08:33:15.373Z,11.80
2019-03-22T08:35:46.055Z,11.34
2019-03-22T08:38:17.655Z,11.47
2019-03-22T08:40:48.523Z,11.33
2019-03-22T08:43:19.111Z,11.46
2019-03-22T08:45:50.785Z,11.57
2019-03-22T08:48:21.328Z,12.00
2019-03-22T08:50:52.060Z,12.40
2019-03-22T08:53:22.906Z,12.34
2019-03-22T08:55:53.542Z,12.29
2019-03-22T08:58:23.956Z,12.31
2019-03-22T09:00:57.790Z,11.95
2019-03-22T09:03:28.071Z,11.54
2019-03-22T09:06:00.231Z,11.41
2019-03-22T09:08:30.762Z,11.42
2019-03-22T09:11:01.647Z,11.63
2019-03-22T09:13:32.344Z,11.39
2019-03-22T09:16:03.059Z,11.50
2019-03-22T09:18:35.951Z,11.79
2019-03-22T09:21:06.673Z,11.83
2019-03-22T09:23:38.421Z,11.72
2019-03-22T09:26:10.649Z,11.59
2019-03-22T09:28:43.077Z,11.38
2019-03-22T09:31:15.501Z,11.26
2019-03-22T09:33:46.178Z,11.17
2019-03-22T09:36:16.814Z,11.01
2019-03-22T09:38:47.505Z,11.10
2019-03-22T09:41:19.074Z,11.19
2019-03-22T09:43:50.042Z,11.15
2019-03-22T09:46:21.621Z,11.00
2019-03-22T09:48:52.619Z,11.55
2019-03-22T09:51:23.272Z,11.87
2019-03-22T09:53:54.010Z,12.03
2019-03-22T09:56:24.636Z,12.02
2019-03-22T09:58:56.372Z,11.77
2019-03-22T10:01:27.656Z,11.89
2019-03-22T10:03:58.372Z,12.01
2019-03-22T10:06:30.545Z,11.70
2019-03-22T10:09:04.062Z,11.39
2019-03-22T10:11:33.261Z,11.30
2019-03-22T10:14:04.426Z,11.79
2019-03-22T10:16:36.135Z,11.47
2019-03-22T10:19:06.554Z,11.11
2019-03-22T10:21:37.380Z,11.27
2019-03-22T10:24:08.029Z,11.61
2019-03-22T10:26:39.754Z,11.72
2019-03-22T10:29:10.284Z,11.31
2019-03-22T10:31:41.163Z,11.16
2019-03-22T10:34:12.256Z,11.06
2019-03-22T10:36:43.034Z,11.00
2019-03-22T10:39:13.863Z,11.01
2019-03-22T10:41:44.581Z,11.15
2019-03-22T10:44:15.281Z,11.21
2019-03-22T10:46:47.032Z,11.61
2019-03-22T10:49:17.303Z,11.77
2019-03-22T10:51:56.906Z,11.19
2019-03-22T10:54:21.134Z,11.65
2019-03-22T10:56:51.519Z,11.83
2019-03-22T10:59:23.170Z,11.75
2019-03-22T11:02:03.377Z,11.51
2019-03-22T11:04:27.128Z,11.50
2019-03-22T11:06:57.323Z,11.52
2019-03-22T11:09:28.039Z,11.55
2019-03-22T11:11:59.947Z,11.27
2019-03-22T11:14:30.124Z,11.26
2019-03-22T11:17:01.479Z,11.06
2019-03-22T11:19:32.421Z,11.19
2019-03-22T11:22:03.558Z,10.95
2019-03-22T11:24:35.496Z,10.79
2019-03-22T11:27:05.902Z,10.91
2019-03-22T11:29:36.678Z,10.61
2019-03-22T11:32:12.555Z,10.29
2019-03-22T11:34:40.188Z,10.27
2019-03-22T11:37:11.732Z,10.38
2019-03-22T11:39:42.052Z,10.31
2019-03-22T11:42:20.683Z,10.45
2019-03-22T11:44:51.460Z,10.56
2019-03-22T11:47:22.243Z,10.31
2019-03-22T11:49:52.970Z,10.47
2019-03-22T11:52:24.701Z,10.61
2019-03-22T11:54:55.457Z,10.68
2019-03-22T11:57:26.053Z,10.69
2019-03-22T11:59:57.164Z,10.71
2019-03-22T12:02:28.989Z,10.66
2019-03-22T12:05:01.757Z,10.41
2019-03-22T12:07:33.218Z,10.39
2019-03-22T12:10:06.964Z,10.31
2019-03-22T12:12:37.242Z,10.19
2019-03-22T12:15:13.199Z,10.19
2019-03-22T12:17:43.527Z,10.12
2019-03-22T12:20:16.918Z,10.25
2019-03-22T12:22:47.353Z,10.37
2019-03-22T12:25:22.887Z,10.31
2019-03-22T12:27:53.523Z,10.38
2019-03-22T12:30:25.885Z,10.36
2019-03-22T12:32:56.512Z,10.28
2019-03-22T12:35:27.905Z,10.25
2019-03-22T12:38:00.132Z,10.16
2019-03-22T12:40:31.578Z,10.26
2019-03-22T12:43:03.953Z,10.28
2019-03-22T12:45:34.684Z,10.31
2019-03-22T12:48:05.926Z,10.31
2019-03-22T12:50:36.868Z,10.21
2019-03-22T12:53:08.423Z,10.31
2019-03-22T12:55:39.066Z,10.40
2019-03-22T12:58:10.496Z,10.48
2019-03-22T13:00:42.769Z,10.32
2019-03-22T13:03:14.520Z,10.25
2019-03-22T13:05:45.033Z,10.17
2019-03-22T13:08:15.794Z,10.16
2019-03-22T13:10:47.351Z,10.15
2019-03-22T13:13:17.978Z,10.19
2019-03-22T13:15:49.516Z,10.35
2019-03-22T13:18:19.743Z,10.45
2019-03-22T13:20:51.496Z,10.43
2019-03-22T13:23:22.125Z,10.39
2019-03-22T13:25:52.769Z,10.44
2019-03-22T13:28:24.198Z,10.52
2019-03-22T13:30:54.933Z,10.53
2019-03-22T13:33:25.669Z,10.48
2019-03-22T13:35:56.602Z,10.40
2019-03-22T13:38:28.052Z,10.39
2019-03-22T13:40:58.482Z,10.41
2019-03-22T13:43:29.110Z,10.39
2019-03-22T13:45:59.780Z,10.37
2019-03-22T13:48:30.606Z,10.42
2019-03-22T13:51:01.237Z,10.34
2019-03-22T13:53:31.834Z,10.09
2019-03-22T13:56:02.567Z,10.09
2019-03-22T13:58:33.812Z,10.01
2019-03-22T14:01:05.159Z,9.74
2019-03-22T14:03:35.805Z,9.31
2019-03-22T14:06:06.520Z,9.08
2019-03-22T14:08:38.275Z,8.94
2019-03-22T14:11:10.541Z,9.00
2019-03-22T14:13:43.326Z,9.23
2019-03-22T14:16:14.069Z,9.40
2019-03-22T14:18:45.008Z,9.51
2019-03-22T14:21:16.494Z,9.51
2019-03-22T14:23:47.391Z,9.44
2019-03-22T14:26:19.273Z,9.45
2019-03-22T14:28:50.084Z,9.34
2019-03-22T14:31:20.839Z,9.34
2019-03-22T14:33:51.859Z,9.41
2019-03-22T14:36:24.424Z,10.25
2019-03-22T14:38:55.156Z,10.52
2019-03-22T14:41:25.988Z,10.68
2019-03-22T14:43:57.543Z,11.06
2019-03-22T14:46:28.997Z,10.63
2019-03-22T14:49:00.854Z,10.85
2019-03-22T14:51:31.584Z,10.56
2019-03-22T14:54:03.449Z,10.25
2019-03-22T14:56:34.115Z,10.03
2019-03-22T14:59:07.473Z,9.82
2019-03-22T15:01:40.556Z,9.69
2019-03-22T15:04:11.493Z,9.71
2019-03-22T15:06:42.327Z,9.77
2019-03-22T15:09:13.468Z,9.78
2019-03-22T15:11:44.771Z,9.88
2019-03-22T15:14:23.192Z,9.82
2019-03-22T15:17:10.651Z,9.71
2019-03-22T15:19:47.147Z,9.67
2019-03-22T15:22:31.687Z,9.61
2019-03-22T15:25:07.321Z,9.63
2019-03-22T15:27:51.847Z,9.62
2019-03-22T15:30:30.803Z,9.55
2019-03-22T15:33:19.280Z,9.55
2019-03-22T15:36:07.981Z,9.56
2019-03-22T15:38:46.335Z,9.55
2019-03-22T15:41:17.462Z,9.53
2019-03-22T15:43:48.092Z,9.56
2019-03-22T15:46:18.781Z,9.52
2019-03-22T15:48:49.962Z,9.48
2019-03-22T15:51:20.709Z,9.47
2019-03-22T15:53:52.142Z,9.41
2019-03-22T15:56:24.925Z,9.50
2019-03-22T15:58:55.246Z,9.49
2019-03-22T16:01:25.765Z,9.61
2019-03-22T16:03:56.299Z,9.66
2019-03-22T16:06:27.134Z,9.70
2019-03-22T16:08:58.913Z,9.74
2019-03-22T16:11:29.219Z,7.01
2019-03-22T16:13:59.724Z,5.44
2019-03-22T16:16:31.868Z,4.83
2019-03-22T16:19:02.437Z,4.60
2019-03-22T16:21:33.173Z,4.51
2019-03-22T16:24:03.891Z,4.35
2019-03-22T16:26:34.532Z,4.27
2019-03-22T16:29:05.272Z,4.35
2019-03-22T16:31:35.891Z,4.49
2019-03-22T16:34:06.426Z,4.31
2019-03-22T16:36:38.785Z,4.21
2019-03-22T16:39:10.165Z,4.14
2019-03-22T16:41:40.770Z,4.12
2019-03-22T16:44:11.399Z,4.00
2019-03-22T16:46:42.037Z,3.98
2019-03-22T16:49:13.012Z,4.05
2019-03-22T16:51:43.497Z,3.90
2019-03-22T16:54:14.755Z,3.90
2019-03-22T16:56:46.088Z,3.93
2019-03-22T16:59:16.198Z,3.93
2019-03-22T17:01:46.944Z,3.94
2019-03-22T17:04:17.466Z,3.84
2019-03-22T17:06:49.324Z,3.82
2019-03-22T17:09:19.546Z,3.85
2019-03-22T17:11:50.075Z,3.85
2019-03-22T17:14:21.871Z,3.91
2019-03-22T17:16:52.253Z,3.82
2019-03-22T17:19:22.892Z,3.75
2019-03-22T17:21:53.409Z,3.75
2019-03-22T17:24:24.463Z,3.70
2019-03-22T17:26:54.980Z,3.72
2019-03-22T17:29:26.411Z,3.71
2019-03-22T17:31:57.156Z,3.71
2019-03-22T17:34:27.792Z,3.72
2019-03-22T17:36:58.281Z,3.76
2019-03-22T17:39:29.769Z,3.76
2019-03-22T17:42:00.912Z,3.73
2019-03-22T17:44:31.147Z,3.69
2019-03-22T17:47:01.772Z,3.65
2019-03-22T17:49:32.284Z,3.60
2019-03-22T17:52:05.458Z,3.61
2019-03-22T17:54:36.008Z,3.57
2019-03-22T17:57:06.534Z,3.55
2019-03-22T17:59:37.163Z,3.52
2019-03-22T18:02:07.696Z,3.50
2019-03-22T18:04:38.228Z,3.45
2019-03-22T18:07:08.684Z,3.48
2019-03-22T18:09:39.173Z,3.44
2019-03-22T18:12:09.699Z,3.49
2019-03-22T18:14:41.046Z,3.49
2019-03-22T18:17:11.675Z,3.43
2019-03-22T18:19:41.822Z,3.42
2019-03-22T18:22:13.450Z,3.49
2019-03-22T18:24:43.997Z,3.54
2019-03-22T18:27:14.535Z,3.52
2019-03-22T18:29:44.921Z,3.59
2019-03-22T18:32:17.097Z,3.65
2019-03-22T18:34:48.048Z,3.62
2019-03-22T18:37:18.493Z,3.67
2019-03-22T18:39:49.811Z,3.75
2019-03-22T18:42:20.245Z,3.83
2019-03-22T18:44:50.669Z,3.86
2019-03-22T18:47:21.167Z,3.95
2019-03-22T18:49:55.190Z,3.95
2019-03-22T18:52:25.516Z,3.95
2019-03-22T18:54:56.149Z,3.88
2019-03-22T18:57:27.183Z,3.89
2019-03-22T18:59:57.830Z,3.85
2019-03-22T19:02:28.547Z,3.77
2019-03-22T19:04:59.689Z,3.82
2019-03-22T19:07:30.316Z,3.75
2019-03-22T19:10:00.846Z,3.79
2019-03-22T19:12:31.887Z,3.83
2019-03-22T19:15:04.873Z,3.84
2019-03-22T19:17:35.042Z,3.90
2019-03-22T19:20:10.687Z,3.87
2019-03-22T19:22:41.580Z,3.87
2019-03-22T19:25:14.555Z,3.91
2019-03-22T19:27:45.086Z,3.89
2019-03-22T19:30:18.818Z,3.85
2019-03-22T19:32:49.320Z,3.77
2019-03-22T19:35:20.663Z,3.84
2019-03-22T19:37:52.879Z,3.82
2019-03-22T19:40:23.047Z,3.86
2019-03-22T19:42:54.088Z,3.85
2019-03-22T19:45:25.437Z,3.78
2019-03-22T19:47:55.965Z,3.74
2019-03-22T19:50:26.455Z,3.72
2019-03-22T19:52:59.475Z,3.70
2019-03-22T19:55:30.009Z,3.70
2019-03-22T19:58:00.634Z,3.64
2019-03-22T20:00:31.162Z,3.61
2019-03-22T20:03:04.568Z,3.54
2019-03-22T20:05:35.087Z,3.57
2019-03-22T20:08:05.617Z,3.54
2019-03-22T20:10:36.040Z,3.61
2019-03-22T20:13:06.470Z,3.54
2019-03-22T20:15:37.090Z,3.53
2019-03-22T20:18:09.592Z,3.52
2019-03-22T20:20:39.791Z,3.42
2019-03-22T20:23:11.134Z,3.37
2019-03-22T20:25:44.482Z,3.35
2019-03-22T20:28:16.284Z,3.33
2019-03-22T20:30:46.505Z,3.39
2019-03-22T20:33:16.994Z,3.39
2019-03-22T20:35:49.713Z,3.30
2019-03-22T20:38:20.035Z,3.29
2019-03-22T20:40:51.077Z,3.34
2019-03-22T20:43:21.708Z,3.34
2019-03-22T20:45:52.232Z,3.35
2019-03-22T20:48:22.860Z,3.33
2019-03-22T20:50:53.388Z,3.34
2019-03-22T20:53:23.911Z,3.33
2019-03-22T20:55:56.397Z,3.37
2019-03-22T20:58:28.146Z,3.38
2019-03-22T21:00:58.477Z,3.42
2019-03-22T21:03:28.997Z,3.44
2019-03-22T21:05:59.524Z,3.41
2019-03-22T21:08:30.870Z,3.48
2019-03-22T21:11:01.294Z,3.42
2019-03-22T21:13:32.133Z,3.40
2019-03-22T21:16:02.555Z,3.35
2019-03-22T21:18:33.865Z,3.33
2019-03-22T21:21:04.153Z,3.40
2019-03-22T21:23:36.547Z,3.49
2019-03-22T21:26:07.040Z,3.49
2019-03-22T21:31:13.248Z,3.50
2019-03-22T21:33:43.524Z,3.44
2019-03-22T21:36:14.047Z,3.41
2019-03-22T21:38:44.678Z,3.43
2019-03-22T21:41:15.312Z,3.37
2019-03-22T21:43:45.943Z,3.39
2019-03-22T21:46:17.041Z,3.42
2019-03-22T21:48:48.322Z,3.37
2019-03-22T21:51:21.311Z,3.35
2019-03-22T21:53:51.738Z,3.35
2019-03-22T21:56:22.265Z,3.31
2019-03-22T21:58:54.223Z,3.29
2019-03-22T22:01:24.547Z,3.19
2019-03-22T22:03:55.074Z,3.21
2019-03-22T22:06:25.705Z,3.22
2019-03-22T22:08:57.283Z,3.30
2019-03-22T22:11:28.091Z,3.29
2019-03-22T22:13:58.616Z,3.35
2019-03-22T22:16:29.144Z,3.32
2019-03-22T22:18:59.674Z,3.28
2019-03-22T22:21:30.308Z,3.27
2019-03-22T22:24:01.649Z,3.12
2019-03-22T22:26:31.873Z,3.03
2019-03-22T22:29:02.808Z,3.06
2019-03-22T22:31:33.440Z,3.01
2019-03-22T22:34:03.967Z,3.05
2019-03-22T22:36:34.500Z,2.94
2019-03-22T22:39:07.990Z,2.99
2019-03-22T22:41:38.202Z,2.97
2019-03-22T22:44:08.879Z,2.92
2019-03-22T22:46:40.809Z,2.89
2019-03-22T22:49:11.232Z,2.98
2019-03-22T22:51:42.099Z,2.97
2019-03-22T22:54:13.210Z,3.01
2019-03-22T22:56:43.840Z,2.91
2019-03-22T22:59:15.297Z,2.81
2019-03-22T23:01:46.079Z,2.84
2019-03-22T23:04:17.976Z,2.79
2019-03-22T23:06:48.609Z,2.72
2019-03-22T23:09:20.184Z,2.70
2019-03-22T23:11:50.793Z,2.77
2019-03-22T23:14:21.657Z,2.75
2019-03-22T23:16:52.762Z,2.73
2019-03-22T23:19:23.499Z,2.70
2019-03-22T23:21:54.125Z,2.68
2019-03-22T23:24:25.165Z,2.65
2019-03-22T23:26:56.149Z,2.68
2019-03-22T23:29:26.739Z,2.73
2019-03-22T23:31:57.266Z,2.69
2019-03-22T23:34:27.991Z,2.72
2019-03-22T23:36:58.483Z,2.80
2019-03-22T23:39:29.836Z,2.86
2019-03-22T23:42:00.198Z,2.92
2019-03-22T23:44:30.709Z,2.92
2019-03-22T23:47:01.098Z,2.94
2019-03-22T23:49:31.683Z,2.92
2019-03-22T23:52:02.203Z,2.90
2019-03-22T23:54:32.732Z,2.90
2019-03-22T23:57:04.996Z,2.88
2019-03-22T23:59:35.329Z,2.86
